Observation data for Roaring Springs on 01/12/2018      Previous  Date  Next       Current Mesonet Observations  Soil Data  Daily Summary Page  Observations in Plain Language
KRRS 120600Z 35006KT M03/M08 A3027 RMK A01 T10311084  RH  068%=      5-min Rain = 0
KRRS 120605Z 35006KT M03/M08 A3027 RMK A01 T10331084  RH  069%=      5-min Rain = 0
KRRS 120610Z 35005KT M03/M08 A3027 RMK A01 T10341084  RH  069%=      5-min Rain = 0
KRRS 120615Z 34005KT M03/M08 A3027 RMK A01 T10331082  RH  070%=      5-min Rain = 0
KRRS 120620Z 34005KT M03/M08 A3027 RMK A01 T10321081  RH  069%=      5-min Rain = 0
KRRS 120625Z 35004KT M03/M08 A3027 RMK A01 T10311081  RH  069%=      5-min Rain = 0
KRRS 120630Z 32003KT M03/M08 A3027 RMK A01 T10301080  RH  069%=      5-min Rain = 0
KRRS 120635Z 31003KT M03/M09 A3027 RMK A01 T10341085  RH  069%=      5-min Rain = 0
KRRS 120640Z 30004KT M04/M09 A3028 RMK A01 T10401087  RH  071%=      5-min Rain = 0
KRRS 120645Z 31004KT M04/M09 A3028 RMK A01 T10441087  RH  073%=      5-min Rain = 0
KRRS 120650Z 31005KT M04/M09 A3028 RMK A01 T10431086  RH  073%=      5-min Rain = 0
KRRS 120655Z 30006KT M05/M09 A3028 RMK A01 T10461089  RH  073%=      5-min Rain = 0
KRRS 120700Z 31006KT M05/M09 A3027 RMK A01 T10491088  RH  075%=      5-min Rain = 0
KRRS 120705Z 31006KT M05/M09 A3028 RMK A01 T10471085  RH  076%=      5-min Rain = 0
KRRS 120710Z 31005KT M05/M09 A3027 RMK A01 T10461085  RH  075%=      5-min Rain = 0
KRRS 120715Z 31005KT M05/M09 A3027 RMK A01 T10481088  RH  075%=      5-min Rain = 0
KRRS 120720Z 32006KT M05/M09 A3027 RMK A01 T10491087  RH  076%=      5-min Rain = 0
KRRS 120725Z 34007KT M05/M08 A3026 RMK A01 T10451082  RH  076%=      5-min Rain = 0
KRRS 120730Z 33006KT M04/M08 A3027 RMK A01 T10391080  RH  074%=      5-min Rain = 0
KRRS 120735Z 33006KT M04/M08 A3027 RMK A01 T10361078  RH  074%=      5-min Rain = 0
KRRS 120740Z 34006KT M03/M08 A3026 RMK A01 T10341077  RH  073%=      5-min Rain = 0
KRRS 120745Z 34007KT M03/M08 A3026 RMK A01 T10321078  RH  072%=      5-min Rain = 0
KRRS 120750Z 35007KT M03/M08 A3026 RMK A01 T10321077  RH  072%=      5-min Rain = 0
KRRS 120755Z 00007KT M03/M08 A3026 RMK A01 T10321077  RH  072%=      5-min Rain = 0
KRRS 120800Z 01006KT M03/M08 A3026 RMK A01 T10331078  RH  072%=      5-min Rain = 0
KRRS 120805Z 00005KT M04/M08 A3026 RMK A01 T10351078  RH  073%=      5-min Rain = 0
KRRS 120810Z 00005KT M03/M08 A3026 RMK A01 T10341078  RH  073%=      5-min Rain = 0
KRRS 120815Z 02005KT M03/M08 A3026 RMK A01 T10341078  RH  072%=      5-min Rain = 0
KRRS 120820Z 01004KT M03/M08 A3026 RMK A01 T10341078  RH  073%=      5-min Rain = 0
KRRS 120825Z 03006KT M03/M08 A3026 RMK A01 T10341078  RH  073%=      5-min Rain = 0
KRRS 120830Z 04008KT M04/M08 A3025 RMK A01 T10381079  RH  074%=      5-min Rain = 0
KRRS 120835Z 03007KT M04/M08 A3026 RMK A01 T10401079  RH  076%=      5-min Rain = 0
KRRS 120840Z 02005KT M04/M08 A3026 RMK A01 T10411080  RH  075%=      5-min Rain = 0
KRRS 120845Z 03008KT M04/M08 A3026 RMK A01 T10441082  RH  076%=      5-min Rain = 0
KRRS 120850Z 03007KT M05/M08 A3026 RMK A01 T10471082  RH  078%=      5-min Rain = 0
KRRS 120855Z 03006KT M05/M08 A3026 RMK A01 T10491082  RH  079%=      5-min Rain = 0
KRRS 120900Z 03005KT M05/M08 A3027 RMK A01 T10481081  RH  078%=      5-min Rain = 0
KRRS 120905Z 04004KT M05/M08 A3027 RMK A01 T10471080  RH  078%=      5-min Rain = 0
KRRS 120910Z 06006KT M05/M08 A3027 RMK A01 T10461081  RH  077%=      5-min Rain = 0
KRRS 120915Z 06006KT M05/M08 A3026 RMK A01 T10481082  RH  078%=      5-min Rain = 0
KRRS 120920Z 07006KT M05/M08 A3026 RMK A01 T10501083  RH  079%=      5-min Rain = 0
KRRS 120925Z 07006KT M05/M09 A3025 RMK A01 T10531085  RH  079%=      5-min Rain = 0
KRRS 120930Z 06005KT M06/M09 A3025 RMK A01 T10561087  RH  079%=      5-min Rain = 0
KRRS 120935Z 07005KT M06/M09 A3025 RMK A01 T10591090  RH  080%=      5-min Rain = 0
KRRS 120940Z 06003KT M06/M09 A3025 RMK A01 T10601091  RH  080%=      5-min Rain = 0
KRRS 120945Z 08005KT M06/M09 A3025 RMK A01 T10591091  RH  080%=      5-min Rain = 0
KRRS 120950Z 08004KT M06/M09 A3025 RMK A01 T10581090  RH  079%=      5-min Rain = 0
KRRS 120955Z 08005KT M06/M09 A3025 RMK A01 T10591091  RH  079%=      5-min Rain = 0
KRRS 121000Z 08004KT M06/M09 A3025 RMK A01 T10591091  RH  079%=      5-min Rain = 0
KRRS 121005Z 08002KT M06/M09 A3025 RMK A01 T10601092  RH  079%=      5-min Rain = 0
KRRS 121010Z 09003KT M06/M09 A3025 RMK A01 T10591091  RH  079%=      5-min Rain = 0
KRRS 121015Z 09003KT M06/M09 A3025 RMK A01 T10571091  RH  078%=      5-min Rain = 0
KRRS 121020Z 08004KT M06/M09 A3025 RMK A01 T10581092  RH  078%=      5-min Rain = 0
KRRS 121025Z 10002KT M06/M10 A3026 RMK A01 T10611095  RH  078%=      5-min Rain = 0
KRRS 121030Z 23002KT M07/M10 A3026 RMK A01 T10691099  RH  080%=      5-min Rain = 0
KRRS 121035Z 23003KT M07/M10 A3026 RMK A01 T10721100  RH  081%=      5-min Rain = 0
KRRS 121040Z 21003KT M08/M10 A3025 RMK A01 T10771102  RH  083%=      5-min Rain = 0
KRRS 121045Z 22002KT M08/M10 A3025 RMK A01 T10751099  RH  084%=      5-min Rain = 0
KRRS 121050Z 23002KT M07/M10 A3026 RMK A01 T10741097  RH  085%=      5-min Rain = 0
KRRS 121055Z 24002KT M07/M10 A3026 RMK A01 T10721097  RH  084%=      5-min Rain = 0
KRRS 121100Z 24002KT M07/M10 A3026 RMK A01 T10731097  RH  084%=      5-min Rain = 0
KRRS 121105Z 25003KT M07/M10 A3026 RMK A01 T10721097  RH  083%=      5-min Rain = 0
KRRS 121110Z 25003KT M07/M10 A3026 RMK A01 T10741098  RH  084%=      5-min Rain = 0
KRRS 121115Z 24003KT M07/M10 A3026 RMK A01 T10731096  RH  085%=      5-min Rain = 0
KRRS 121120Z 23003KT M07/M10 A3026 RMK A01 T10731097  RH  084%=      5-min Rain = 0
KRRS 121125Z 24004KT M07/M10 A3026 RMK A01 T10741098  RH  084%=      5-min Rain = 0
KRRS 121130Z 25004KT M08/M10 A3026 RMK A01 T10771101  RH  084%=      5-min Rain = 0
KRRS 121135Z 26004KT M08/M10 A3027 RMK A01 T10791100  RH  086%=      5-min Rain = 0
KRRS 121140Z 27004KT M08/M10 A3027 RMK A01 T10791100  RH  086%=      5-min Rain = 0
KRRS 121145Z 26004KT M08/M10 A3027 RMK A01 T10801101  RH  086%=      5-min Rain = 0
KRRS 121150Z 26005KT M08/M10 A3027 RMK A01 T10811101  RH  087%=      5-min Rain = 0
KRRS 121155Z 26004KT M08/M10 A3027 RMK A01 T10811101  RH  087%=      5-min Rain = 0
KRRS 121200Z 24004KT M08/M10 A3027 RMK A01 T10821102  RH  087%=      5-min Rain = 0
KRRS 121205Z 26005KT M08/M10 A3027 RMK A01 T10811100  RH  087%=      5-min Rain = 0
KRRS 121210Z 26004KT M08/M10 A3027 RMK A01 T10811101  RH  087%=      5-min Rain = 0
KRRS 121215Z 24004KT M08/M10 A3027 RMK A01 T10821102  RH  087%=      5-min Rain = 0
KRRS 121220Z 26004KT M08/M10 A3027 RMK A01 T10811101  RH  087%=      5-min Rain = 0
KRRS 121225Z 25003KT M08/M10 A3026 RMK A01 T10831102  RH  087%=      5-min Rain = 0
KRRS 121230Z 23003KT M08/M10 A3026 RMK A01 T10811100  RH  088%=      5-min Rain = 0
KRRS 121235Z 23004KT M08/M10 A3026 RMK A01 T10781098  RH  087%=      5-min Rain = 0
KRRS 121240Z 26004KT M08/M10 A3026 RMK A01 T10821103  RH  086%=      5-min Rain = 0
KRRS 121245Z 25004KT M08/M10 A3026 RMK A01 T10831103  RH  087%=      5-min Rain = 0
KRRS 121250Z 23003KT M08/M10 A3026 RMK A01 T10831102  RH  087%=      5-min Rain = 0
KRRS 121255Z 26004KT M08/M10 A3026 RMK A01 T10831103  RH  087%=      5-min Rain = 0
KRRS 121300Z 25004KT M08/M10 A3026 RMK A01 T10831102  RH  087%=      5-min Rain = 0
KRRS 121305Z 25003KT M08/M10 A3026 RMK A01 T10821102  RH  087%=      5-min Rain = 0
KRRS 121310Z 26004KT M08/M10 A3026 RMK A01 T10831104  RH  086%=      5-min Rain = 0
KRRS 121315Z 26004KT M08/M10 A3026 RMK A01 T10841101  RH  088%=      5-min Rain = 0
KRRS 121320Z 25002KT M08/M10 A3026 RMK A01 T10841103  RH  087%=      5-min Rain = 0
KRRS 121325Z 25003KT M09/M10 A3026 RMK A01 T10851103  RH  088%=      5-min Rain = 0
KRRS 121330Z 25004KT M09/M10 A3026 RMK A01 T10851103  RH  088%=      5-min Rain = 0
KRRS 121335Z 24004KT M09/M10 A3027 RMK A01 T10851103  RH  088%=      5-min Rain = 0
KRRS 121340Z 24004KT M09/M10 A3026 RMK A01 T10861104  RH  088%=      5-min Rain = 0
KRRS 121345Z 25004KT M09/M11 A3027 RMK A01 T10881105  RH  088%=      5-min Rain = 0
KRRS 121350Z 24005KT M09/M11 A3026 RMK A01 T10881106  RH  088%=      5-min Rain = 0
KRRS 121355Z 23004KT M09/M11 A3026 RMK A01 T10891106  RH  089%=      5-min Rain = 0
KRRS 121400Z 22003KT M09/M11 A3026 RMK A01 T10871105  RH  088%=      5-min Rain = 0
KRRS 121405Z 23003KT M09/M11 A3027 RMK A01 T10861105  RH  088%=      5-min Rain = 0
KRRS 121410Z 22003KT M09/M10 A3027 RMK A01 T10851104  RH  088%=      5-min Rain = 0
KRRS 121415Z 23003KT M08/M10 A3028 RMK A01 T10811101  RH  087%=      5-min Rain = 0
KRRS 121420Z 22002KT M08/M10 A3028 RMK A01 T10761100  RH  084%=      5-min Rain = 0
KRRS 121425Z 22002KT M07/M10 A3028 RMK A01 T10721098  RH  082%=      5-min Rain = 0
KRRS 121430Z 23001KT M07/M10 A3029 RMK A01 T10671096  RH  081%=      5-min Rain = 0
KRRS 121435Z 22002KT M06/M09 A3028 RMK A01 T10631093  RH  080%=      5-min Rain = 0
KRRS 121440Z 23001KT M06/M09 A3029 RMK A01 T10581090  RH  079%=      5-min Rain = 0
KRRS 121445Z 22001KT M05/M09 A3028 RMK A01 T10531092  RH  075%=      5-min Rain = 0
KRRS 121450Z 21002KT M05/M09 A3028 RMK A01 T10491092  RH  073%=      5-min Rain = 0
KRRS 121455Z 21002KT M04/M09 A3029 RMK A01 T10441091  RH  071%=      5-min Rain = 0
KRRS 121500Z 20001KT M04/M09 A3029 RMK A01 T10401091  RH  069%=      5-min Rain = 0
KRRS 121505Z 22002KT M04/M09 A3029 RMK A01 T10371091  RH  067%=      5-min Rain = 0
KRRS 121510Z 17001KT M03/M09 A3029 RMK A01 T10321094  RH  063%=      5-min Rain = 0
KRRS 121515Z 15002KT M03/M10 A3029 RMK A01 T10271103  RH  057%=      5-min Rain = 0
KRRS 121520Z 15003KT M03/M10 A3029 RMK A01 T10251104  RH  055%=      5-min Rain = 0
KRRS 121525Z 17003KT M02/M11 A3029 RMK A01 T10241105  RH  054%=      5-min Rain = 0
KRRS 121530Z 16003KT M02/M11 A3029 RMK A01 T10221107  RH  053%=      5-min Rain = 0
KRRS 121535Z 13003KT M02/M11 A3029 RMK A01 T10211107  RH  052%=      5-min Rain = 0
KRRS 121540Z 12003KT M02/M11 A3029 RMK A01 T10201108  RH  052%=      5-min Rain = 0
KRRS 121545Z 14003KT M02/M11 A3029 RMK A01 T10181108  RH  051%=      5-min Rain = 0
KRRS 121550Z 13004KT M02/M11 A3029 RMK A01 T10151108  RH  050%=      5-min Rain = 0
KRRS 121555Z 15003KT M01/M11 A3029 RMK A01 T10131106  RH  050%=      5-min Rain = 0
KRRS 121600Z 13004KT M01/M11 A3029 RMK A01 T10121106  RH  050%=      5-min Rain = 0
KRRS 121605Z 13004KT M01/M10 A3029 RMK A01 T10101103  RH  050%=      5-min Rain = 0
KRRS 121610Z 14003KT M01/M10 A3029 RMK A01 T10081102  RH  050%=      5-min Rain = 0
KRRS 121615Z 16003KT M00/M10 A3029 RMK A01 T10031100  RH  049%=      5-min Rain = 0
KRRS 121620Z 15004KT M00/M10 A3029 RMK A01 T10011101  RH  048%=      5-min Rain = 0
KRRS 121625Z 17004KT 00/10 A3029 RMK A01 T00000-100  RH  047%=      5-min Rain = 0
KRRS 121630Z 14005KT 00/M10 A3029 RMK A01 T00041100  RH  046%=      5-min Rain = 0
KRRS 121635Z 16004KT 01/M10 A3029 RMK A01 T00051099  RH  046%=      5-min Rain = 0
KRRS 121640Z 15005KT 01/M10 A3028 RMK A01 T00051098  RH  046%=      5-min Rain = 0
KRRS 121645Z 17004KT 01/M10 A3029 RMK A01 T00071095  RH  047%=      5-min Rain = 0
KRRS 121650Z 12003KT 01/M10 A3029 RMK A01 T00111096  RH  045%=      5-min Rain = 0
KRRS 121655Z 16004KT 01/M10 A3029 RMK A01 T00121098  RH  045%=      5-min Rain = 0
KRRS 121700Z 12002KT 01/M10 A3029 RMK A01 T00121097  RH  044%=      5-min Rain = 0
KRRS 121705Z 12003KT 02/M10 A3029 RMK A01 T00161097  RH  044%=      5-min Rain = 0
KRRS 121710Z 13003KT 02/M10 A3028 RMK A01 T00171096  RH  044%=      5-min Rain = 0
KRRS 121715Z 15004KT 02/M10 A3028 RMK A01 T00211096  RH  042%=      5-min Rain = 0
KRRS 121720Z 16004KT 02/M10 A3027 RMK A01 T00221095  RH  042%=      5-min Rain = 0
KRRS 121725Z 16006KT 02/M09 A3027 RMK A01 T00231094  RH  042%=      5-min Rain = 0
KRRS 121730Z 17005KT 02/M09 A3027 RMK A01 T00241092  RH  043%=      5-min Rain = 0
KRRS 121735Z 18005KT 02/M09 A3026 RMK A01 T00241093  RH  042%=      5-min Rain = 0
KRRS 121740Z 16007KT 03/M09 A3026 RMK A01 T00261092  RH  042%=      5-min Rain = 0
KRRS 121745Z 15006KT 03/M09 A3025 RMK A01 T00311091  RH  041%=      5-min Rain = 0
KRRS 121750Z 16005KT 03/M09 A3025 RMK A01 T00321092  RH  040%=      5-min Rain = 0
KRRS 121755Z 15006KT 04/M09 A3024 RMK A01 T00351090  RH  040%=      5-min Rain = 0
KRRS 121800Z 16007G14KT 04/M09 A3024 RMK A01 T00401088  RH  039%=      5-min Rain = 0
KRRS 121805Z 16008G14KT 04/M09 A3024 RMK A01 T00421089  RH  038%=      5-min Rain = 0
KRRS 121810Z 16007KT 04/M09 A3024 RMK A01 T00441089  RH  038%=      5-min Rain = 0
KRRS 121815Z 14007KT 05/M09 A3023 RMK A01 T00451087  RH  038%=      5-min Rain = 0
KRRS 121820Z 15007KT 05/M09 A3023 RMK A01 T00481087  RH  037%=      5-min Rain = 0
KRRS 121825Z 15009KT 05/M09 A3022 RMK A01 T00511088  RH  037%=      5-min Rain = 0
KRRS 121830Z 15008KT 05/M09 A3021 RMK A01 T00531087  RH  036%=      5-min Rain = 0
KRRS 121835Z 16009G14KT 06/M09 A3021 RMK A01 T00561088  RH  035%=      5-min Rain = 0
KRRS 121840Z 16008G13KT 06/M09 A3021 RMK A01 T00561089  RH  035%=      5-min Rain = 0
KRRS 121845Z 17009G15KT 06/M09 A302 RMK A01 T00601089  RH  034%=      5-min Rain = 0
KRRS 121850Z 16009KT 06/M09 A302 RMK A01 T00571093  RH  034%=      5-min Rain = 0
KRRS 121855Z 16010KT 06/M09 A3019 RMK A01 T00591091  RH  034%=      5-min Rain = 0
KRRS 121900Z 16012KT 06/M09 A3019 RMK A01 T00611092  RH  033%=      5-min Rain = 0
KRRS 121905Z 16010G15KT 06/M09 A3019 RMK A01 T00601092  RH  033%=      5-min Rain = 0
KRRS 121910Z 15009G15KT 06/M09 A3018 RMK A01 T00631092  RH  032%=      5-min Rain = 0
KRRS 121915Z 15011G16KT 06/M10 A3018 RMK A01 T00641095  RH  031%=      5-min Rain = 0
KRRS 121920Z 16009G15KT 07/M10 A3017 RMK A01 T00651096  RH  031%=      5-min Rain = 0
KRRS 121925Z 16012KT 06/M10 A3017 RMK A01 T00641102  RH  030%=      5-min Rain = 0
KRRS 121930Z 15012G17KT 07/M10 A3017 RMK A01 T00651101  RH  030%=      5-min Rain = 0
KRRS 121935Z 16010KT 07/M11 A3017 RMK A01 T00671105  RH  029%=      5-min Rain = 0
KRRS 121940Z 15012G18KT 07/M10 A3017 RMK A01 T00681103  RH  029%=      5-min Rain = 0
KRRS 121945Z 15011G17KT 07/M10 A3017 RMK A01 T00701103  RH  028%=      5-min Rain = 0
KRRS 121950Z 15011KT 07/M10 A3017 RMK A01 T00691104  RH  028%=      5-min Rain = 0
KRRS 121955Z 15011KT 07/M10 A3017 RMK A01 T00691104  RH  028%=      5-min Rain = 0
KRRS 122000Z 15012G17KT 07/M10 A3017 RMK A01 T00701103  RH  028%=      5-min Rain = 0
KRRS 122005Z 15011KT 07/M10 A3017 RMK A01 T00691103  RH  029%=      5-min Rain = 0
KRRS 122010Z 15011KT 07/M10 A3017 RMK A01 T00691103  RH  029%=      5-min Rain = 0
KRRS 122015Z 16011KT 07/M10 A3017 RMK A01 T00711102  RH  028%=      5-min Rain = 0
KRRS 122020Z 15010KT 07/M10 A3017 RMK A01 T00731101  RH  028%=      5-min Rain = 0
KRRS 122025Z 16011KT 07/M10 A3017 RMK A01 T00721101  RH  028%=      5-min Rain = 0
KRRS 122030Z 16012KT 07/M10 A3016 RMK A01 T00741100  RH  028%=      5-min Rain = 0
KRRS 122035Z 16009G15KT 07/M10 A3016 RMK A01 T00731100  RH  028%=      5-min Rain = 0
KRRS 122040Z 17011KT 07/M10 A3016 RMK A01 T00741099  RH  028%=      5-min Rain = 0
KRRS 122045Z 16010KT 08/M10 A3017 RMK A01 T00761100  RH  028%=      5-min Rain = 0
KRRS 122050Z 17011G16KT 08/M10 A3017 RMK A01 T00771099  RH  028%=      5-min Rain = 0
KRRS 122055Z 18009KT 08/M10 A3017 RMK A01 T00781098  RH  028%=      5-min Rain = 0
KRRS 122100Z 17010G15KT 08/M10 A3017 RMK A01 T00781100  RH  027%=      5-min Rain = 0
KRRS 122105Z 16012G18KT 08/M10 A3017 RMK A01 T00771101  RH  028%=      5-min Rain = 0
KRRS 122110Z 16011KT 07/M10 A3017 RMK A01 T00741102  RH  028%=      5-min Rain = 0
KRRS 122115Z 16011KT 08/M10 A3017 RMK A01 T00751101  RH  028%=      5-min Rain = 0
KRRS 122120Z 17010G15KT 08/M10 A3017 RMK A01 T00771101  RH  027%=      5-min Rain = 0
KRRS 122125Z 16011G16KT 08/M10 A3016 RMK A01 T00781100  RH  027%=      5-min Rain = 0
KRRS 122130Z 16011G17KT 08/M10 A3016 RMK A01 T00791101  RH  027%=      5-min Rain = 0
KRRS 122135Z 17010KT 08/M10 A3016 RMK A01 T00801102  RH  027%=      5-min Rain = 0
KRRS 122140Z 18012KT 08/M10 A3016 RMK A01 T00791103  RH  027%=      5-min Rain = 0
KRRS 122145Z 16009G16KT 08/M10 A3016 RMK A01 T00821102  RH  026%=      5-min Rain = 0
KRRS 122150Z 17010KT 08/M10 A3016 RMK A01 T00821102  RH  026%=      5-min Rain = 0
KRRS 122155Z 16010KT 08/M10 A3016 RMK A01 T00811103  RH  026%=      5-min Rain = 0
KRRS 122200Z 18012KT 08/M10 A3016 RMK A01 T00801103  RH  027%=      5-min Rain = 0
KRRS 122205Z 18010KT 08/M10 A3016 RMK A01 T00791103  RH  027%=      5-min Rain = 0
KRRS 122210Z 16010KT 08/M10 A3016 RMK A01 T00781103  RH  027%=      5-min Rain = 0
KRRS 122215Z 16009G14KT 08/M10 A3016 RMK A01 T00771103  RH  027%=      5-min Rain = 0
KRRS 122220Z 17011G17KT 08/M11 A3016 RMK A01 T00771105  RH  027%=      5-min Rain = 0
KRRS 122225Z 16009KT 08/M10 A3016 RMK A01 T00771104  RH  027%=      5-min Rain = 0
KRRS 122230Z 16009G14KT 08/M10 A3016 RMK A01 T00791104  RH  026%=      5-min Rain = 0
KRRS 122235Z 18010G15KT 08/M11 A3016 RMK A01 T00781105  RH  026%=      5-min Rain = 0
KRRS 122240Z 16010KT 08/M11 A3016 RMK A01 T00761106  RH  026%=      5-min Rain = 0
KRRS 122245Z 15009KT 08/M11 A3016 RMK A01 T00761106  RH  027%=      5-min Rain = 0
KRRS 122250Z 16009G14KT 08/M11 A3016 RMK A01 T00761106  RH  026%=      5-min Rain = 0
KRRS 122255Z 16011KT 07/M11 A3017 RMK A01 T00731108  RH  027%=      5-min Rain = 0
KRRS 122300Z 15010KT 07/M11 A3017 RMK A01 T00711108  RH  027%=      5-min Rain = 0
KRRS 122305Z 15010KT 07/M11 A3017 RMK A01 T00701109  RH  027%=      5-min Rain = 0
KRRS 122310Z 14008KT 07/M11 A3018 RMK A01 T00681109  RH  027%=      5-min Rain = 0
KRRS 122315Z 14010KT 07/M11 A3018 RMK A01 T00671109  RH  028%=      5-min Rain = 0
KRRS 122320Z 13008KT 07/M11 A3018 RMK A01 T00651109  RH  028%=      5-min Rain = 0
KRRS 122325Z 13008KT 06/M11 A3018 RMK A01 T00641109  RH  028%=      5-min Rain = 0
KRRS 122330Z 13008G13KT 06/M11 A3019 RMK A01 T00621109  RH  029%=      5-min Rain = 0
KRRS 122335Z 13009KT 06/M11 A3019 RMK A01 T00601110  RH  029%=      5-min Rain = 0
KRRS 122340Z 13008KT 06/M11 A3019 RMK A01 T00571110  RH  029%=      5-min Rain = 0
KRRS 122345Z 13008KT 06/M11 A3019 RMK A01 T00551110  RH  030%=      5-min Rain = 0
KRRS 122350Z 12007KT 05/M11 A3019 RMK A01 T00521111  RH  030%=      5-min Rain = 0
KRRS 122355Z 12008KT 05/M11 A3019 RMK A01 T00471112  RH  031%=      5-min Rain = 0
KRRS 130000Z 11008KT 04/M11 A302 RMK A01 T00441113  RH  031%=      5-min Rain = 0
KRRS 130005Z 11007KT 04/M11 A302 RMK A01 T00411114  RH  032%=      5-min Rain = 0
KRRS 130010Z 11008KT 04/M12 A302 RMK A01 T00371115  RH  032%=      5-min Rain = 0
KRRS 130015Z 12008KT 03/M12 A302 RMK A01 T00341116  RH  033%=      5-min Rain = 0
KRRS 130020Z 11008KT 03/M12 A3021 RMK A01 T00311117  RH  033%=      5-min Rain = 0
KRRS 130025Z 12008KT 03/M12 A3021 RMK A01 T00291118  RH  034%=      5-min Rain = 0
KRRS 130030Z 11008KT 03/M12 A3021 RMK A01 T00271119  RH  033%=      5-min Rain = 0
KRRS 130035Z 11008KT 03/M12 A3022 RMK A01 T00251120  RH  034%=      5-min Rain = 0
KRRS 130040Z 11008KT 02/M12 A3022 RMK A01 T00221120  RH  035%=      5-min Rain = 0
KRRS 130045Z 12008KT 02/M12 A3022 RMK A01 T00201120  RH  035%=      5-min Rain = 0
KRRS 130050Z 11009KT 02/M12 A3022 RMK A01 T00201121  RH  035%=      5-min Rain = 0
KRRS 130055Z 11009KT 02/M12 A3022 RMK A01 T00191120  RH  035%=      5-min Rain = 0
KRRS 130100Z 11009KT 02/M12 A3023 RMK A01 T00191120  RH  035%=      5-min Rain = 0
KRRS 130105Z 12009KT 02/M12 A3023 RMK A01 T00171121  RH  036%=      5-min Rain = 0
KRRS 130110Z 11009KT 02/M12 A3023 RMK A01 T00161121  RH  036%=      5-min Rain = 0
KRRS 130115Z 10009KT 01/M12 A3024 RMK A01 T00141120  RH  037%=      5-min Rain = 0
KRRS 130120Z 09007KT 01/M12 A3025 RMK A01 T00121120  RH  037%=      5-min Rain = 0
KRRS 130125Z 08007KT 01/M12 A3026 RMK A01 T00081120  RH  038%=      5-min Rain = 0
KRRS 130130Z 08007KT 01/M12 A3027 RMK A01 T00051120  RH  039%=      5-min Rain = 0
KRRS 130135Z 06007KT 00/M12 A3028 RMK A01 T00021121  RH  040%=      5-min Rain = 0
KRRS 130140Z 05007KT M00/M12 A3028 RMK A01 T10041122  RH  041%=      5-min Rain = 0
KRRS 130145Z 06007KT M01/M12 A3028 RMK A01 T10081122  RH  042%=      5-min Rain = 0
KRRS 130150Z 07007KT M01/M12 A3029 RMK A01 T10091122  RH  042%=      5-min Rain = 0
KRRS 130155Z 08006KT M01/M12 A3029 RMK A01 T10101123  RH  043%=      5-min Rain = 0
KRRS 130200Z 08006KT M01/M12 A3029 RMK A01 T10111123  RH  043%=      5-min Rain = 0
KRRS 130205Z 08007KT M01/M12 A303 RMK A01 T10121123  RH  043%=      5-min Rain = 0
KRRS 130210Z 07006KT M01/M12 A303 RMK A01 T10141124  RH  043%=      5-min Rain = 0
KRRS 130215Z 06006KT M02/M13 A3031 RMK A01 T10181125  RH  045%=      5-min Rain = 0
KRRS 130220Z 07007KT M02/M12 A3031 RMK A01 T10171124  RH  045%=      5-min Rain = 0
KRRS 130225Z 07006KT M02/M12 A3031 RMK A01 T10161124  RH  044%=      5-min Rain = 0
KRRS 130230Z 08006KT M02/M12 A3031 RMK A01 T10151124  RH  044%=      5-min Rain = 0
KRRS 130235Z 07006KT M01/M12 A3032 RMK A01 T10141124  RH  044%=      5-min Rain = 0
KRRS 130240Z 05005KT M01/M12 A3032 RMK A01 T10131124  RH  043%=      5-min Rain = 0
KRRS 130245Z 04005KT M02/M13 A3032 RMK A01 T10161125  RH  044%=      5-min Rain = 0
KRRS 130250Z 03006KT M02/M13 A3033 RMK A01 T10201125  RH  045%=      5-min Rain = 0
KRRS 130255Z 03006KT M02/M13 A3034 RMK A01 T10221125  RH  046%=      5-min Rain = 0
KRRS 130300Z 04006KT M02/M13 A3034 RMK A01 T10241125  RH  046%=      5-min Rain = 0
KRRS 130305Z 05007KT M02/M13 A3034 RMK A01 T10241125  RH  047%=      5-min Rain = 0
KRRS 130310Z 04006KT M02/M13 A3034 RMK A01 T10231125  RH  046%=      5-min Rain = 0
KRRS 130315Z 05005KT M02/M13 A3034 RMK A01 T10241126  RH  046%=      5-min Rain = 0
KRRS 130320Z 06004KT M03/M13 A3034 RMK A01 T10251126  RH  046%=      5-min Rain = 0
KRRS 130325Z 07003KT M02/M13 A3034 RMK A01 T10241125  RH  046%=      5-min Rain = 0
KRRS 130330Z 03005KT M02/M13 A3035 RMK A01 T10231125  RH  046%=      5-min Rain = 0
KRRS 130335Z 02005KT M02/M13 A3036 RMK A01 T10241125  RH  046%=      5-min Rain = 0
KRRS 130340Z 03005KT M03/M13 A3036 RMK A01 T10251126  RH  047%=      5-min Rain = 0
KRRS 130345Z 01006KT M03/M13 A3037 RMK A01 T10251125  RH  047%=      5-min Rain = 0
KRRS 130350Z 01005KT M02/M12 A3038 RMK A01 T10231124  RH  047%=      5-min Rain = 0
KRRS 130355Z 01005KT M02/M12 A3038 RMK A01 T10211123  RH  046%=      5-min Rain = 0
KRRS 130400Z 02005KT M02/M12 A3038 RMK A01 T10201123  RH  046%=      5-min Rain = 0
KRRS 130405Z 02004KT M02/M12 A3038 RMK A01 T10191124  RH  045%=      5-min Rain = 0
KRRS 130410Z 03004KT M02/M12 A3037 RMK A01 T10201124  RH  045%=      5-min Rain = 0
KRRS 130415Z 02004KT M02/M12 A3038 RMK A01 T10211124  RH  046%=      5-min Rain = 0
KRRS 130420Z 36005KT M02/M12 A3039 RMK A01 T10211124  RH  046%=      5-min Rain = 0
KRRS 130425Z 35004KT M02/M12 A3039 RMK A01 T10201123  RH  046%=      5-min Rain = 0
KRRS 130430Z 36001KT M02/M12 A3038 RMK A01 T10201124  RH  045%=      5-min Rain = 0
KRRS 130435Z 01006KT M02/M12 A3039 RMK A01 T10191123  RH  045%=      5-min Rain = 0
KRRS 130440Z 00006KT M02/M12 A304 RMK A01 T10191123  RH  045%=      5-min Rain = 0
KRRS 130445Z 36006KT M02/M12 A3041 RMK A01 T10171123  RH  045%=      5-min Rain = 0
KRRS 130450Z 36004KT M02/M12 A304 RMK A01 T10161124  RH  044%=      5-min Rain = 0
KRRS 130455Z 35004KT M02/M12 A3041 RMK A01 T10171123  RH  045%=      5-min Rain = 0
KRRS 130500Z 35005KT M02/M12 A3041 RMK A01 T10181123  RH  045%=      5-min Rain = 0
KRRS 130505Z 35004KT M02/M12 A3041 RMK A01 T10181123  RH  045%=      5-min Rain = 0
KRRS 130510Z 35005KT M02/M12 A3041 RMK A01 T10181124  RH  045%=      5-min Rain = 0
KRRS 130515Z 00005KT M02/M12 A3041 RMK A01 T10191124  RH  045%=      5-min Rain = 0
KRRS 130520Z 01006KT M02/M12 A3041 RMK A01 T10211124  RH  046%=      5-min Rain = 0
KRRS 130525Z 01006KT M02/M13 A3041 RMK A01 T10221125  RH  046%=      5-min Rain = 0
KRRS 130530Z 00006KT M03/M13 A3042 RMK A01 T10251125  RH  047%=      5-min Rain = 0
KRRS 130535Z 35006KT M03/M13 A3042 RMK A01 T10271125  RH  047%=      5-min Rain = 0
KRRS 130540Z 34005KT M03/M13 A3042 RMK A01 T10291125  RH  048%=      5-min Rain = 0
KRRS 130545Z 35005KT M03/M13 A3042 RMK A01 T10311126  RH  048%=      5-min Rain = 0
KRRS 130550Z 00006KT M03/M13 A3042 RMK A01 T10331127  RH  049%=      5-min Rain = 0
KRRS 130555Z 01006KT M04/M13 A3042 RMK A01 T10371127  RH  050%=      5-min Rain = 0

Page generated in 0.0152 seconds.